createdAt,value
2022-10-25T00:01:23.531Z,3.33
2022-10-25T00:05:25.015Z,2.65
2022-10-25T00:09:26.397Z,3.55
2022-10-25T00:13:27.860Z,3.85
2022-10-25T00:17:29.299Z,3.15
2022-10-25T00:21:31.520Z,3.33
2022-10-25T00:29:44.995Z,3.70
2022-10-25T00:33:46.450Z,3.70
2022-10-25T00:37:48.531Z,3.25
2022-10-25T00:41:49.978Z,4.13
2022-10-25T00:45:54.341Z,3.38
2022-10-25T00:50:05.617Z,3.45
2022-10-25T00:54:11.140Z,3.17
2022-10-25T00:58:17.865Z,3.53
2022-10-25T01:02:22.136Z,3.65
2022-10-25T01:06:29.833Z,3.63
2022-10-25T01:10:31.951Z,4.00
2022-10-25T01:14:36.486Z,3.42
2022-10-25T01:18:55.022Z,3.28
2022-10-25T01:23:08.123Z,3.42
2022-10-25T01:27:31.319Z,3.20
2022-10-25T01:31:48.713Z,3.65
2022-10-25T01:36:02.553Z,3.63
2022-10-25T01:40:21.250Z,3.17
2022-10-25T01:44:44.169Z,3.40
2022-10-25T01:48:50.620Z,3.28
2022-10-25T01:52:52.234Z,3.17
2022-10-25T01:57:12.311Z,3.83
2022-10-25T02:09:50.292Z,3.33
2022-10-25T02:14:13.902Z,3.00
2022-10-25T02:18:19.458Z,2.78
2022-10-25T02:22:25.784Z,3.08
2022-10-25T02:26:27.910Z,2.88
2022-10-25T02:30:32.268Z,2.80
2022-10-25T02:34:34.382Z,3.13
2022-10-25T02:38:36.206Z,3.05
2022-10-25T02:42:37.638Z,3.15
2022-10-25T02:46:39.228Z,3.40
2022-10-25T02:50:40.638Z,2.85
2022-10-25T02:54:42.040Z,3.03
2022-10-25T02:58:44.693Z,3.55
2022-10-25T03:02:46.540Z,2.53
2022-10-25T03:06:48.158Z,3.15
2022-10-25T03:10:50.400Z,2.85
2022-10-25T03:14:51.801Z,2.70
2022-10-25T03:18:56.458Z,2.33
2022-10-25T03:22:57.900Z,2.63
2022-10-25T03:26:59.429Z,2.10
2022-10-25T03:31:01.035Z,2.42
2022-10-25T03:35:02.445Z,2.03
2022-10-25T03:39:03.924Z,2.97
2022-10-25T03:43:05.266Z,1.50
2022-10-25T03:47:06.646Z,1.70
2022-10-25T03:51:08.117Z,2.05
2022-10-25T03:55:10.291Z,2.33
2022-10-25T03:59:11.671Z,2.22
2022-10-25T04:03:13.039Z,1.80
2022-10-25T04:07:14.806Z,2.10
2022-10-25T04:11:16.285Z,2.15
2022-10-25T04:15:17.679Z,1.95
2022-10-25T04:19:19.053Z,1.75
2022-10-25T04:23:20.447Z,1.90
2022-10-25T04:27:21.813Z,1.77
2022-10-25T04:31:23.849Z,1.73
2022-10-25T04:35:25.238Z,1.70
2022-10-25T04:39:26.631Z,1.63
2022-10-25T04:43:29.167Z,1.40
2022-10-25T04:47:32.025Z,1.70
2022-10-25T04:51:34.280Z,1.75
2022-10-25T04:55:35.698Z,1.90
2022-10-25T04:59:37.087Z,1.85
2022-10-25T05:03:38.663Z,1.80
2022-10-25T05:07:40.030Z,1.60
2022-10-25T05:11:41.388Z,1.70
2022-10-25T05:15:42.766Z,1.90
2022-10-25T05:19:44.109Z,2.00
2022-10-25T05:23:46.045Z,2.03
2022-10-25T05:27:47.440Z,2.25
2022-10-25T05:31:48.866Z,1.90
2022-10-25T05:35:50.277Z,1.80
2022-10-25T05:39:51.705Z,1.95
2022-10-25T05:43:53.493Z,2.00
2022-10-25T05:47:54.866Z,2.55
2022-10-25T05:51:56.292Z,2.00
2022-10-25T05:56:02.856Z,2.10
2022-10-25T06:00:04.867Z,2.00
2022-10-25T06:04:06.635Z,2.10
2022-10-25T06:08:08.010Z,2.10
2022-10-25T06:12:09.691Z,1.85
2022-10-25T06:16:14.027Z,1.75
2022-10-25T06:20:15.441Z,1.77
2022-10-25T06:24:16.826Z,2.20
2022-10-25T06:28:18.187Z,1.75
2022-10-25T06:32:19.551Z,2.03
2022-10-25T06:36:23.027Z,2.28
2022-10-25T06:40:24.423Z,2.50
2022-10-25T06:44:25.783Z,3.50
2022-10-25T06:48:27.170Z,1.60
2022-10-25T06:52:29.035Z,2.20
2022-10-25T06:56:30.426Z,2.03
2022-10-25T07:00:31.816Z,1.83
2022-10-25T07:04:33.303Z,1.80
2022-10-25T07:08:35.993Z,2.08
2022-10-25T07:12:38.095Z,1.58
2022-10-25T07:16:39.719Z,1.35
2022-10-25T07:20:41.468Z,2.42
2022-10-25T07:24:42.900Z,1.70
2022-10-25T07:28:46.484Z,2.03
2022-10-25T07:32:47.856Z,1.63
2022-10-25T07:36:49.263Z,1.60
2022-10-25T07:40:59.944Z,2.20
2022-10-25T07:45:01.431Z,1.40
2022-10-25T07:49:02.971Z,1.50
2022-10-25T07:53:04.405Z,1.60
2022-10-25T07:57:06.465Z,1.42
2022-10-25T08:01:10.318Z,1.65
2022-10-25T08:05:11.748Z,1.70
2022-10-25T08:09:14.713Z,1.45
2022-10-25T08:13:22.484Z,1.47
2022-10-25T08:17:23.917Z,1.70
2022-10-25T08:21:25.328Z,2.13
2022-10-25T08:25:28.565Z,2.50
2022-10-25T08:29:29.940Z,2.28
2022-10-25T08:33:32.719Z,1.77
2022-10-25T08:37:34.171Z,2.17
2022-10-25T08:41:56.595Z,2.63
2022-10-25T08:46:06.061Z,2.13
2022-10-25T08:50:24.305Z,2.55
2022-10-25T08:54:33.280Z,2.38
2022-10-25T08:58:47.668Z,1.95
2022-10-25T09:02:54.723Z,1.85
2022-10-25T09:07:28.254Z,1.67
2022-10-25T09:11:54.522Z,2.00
2022-10-25T09:16:07.598Z,2.78
2022-10-25T09:20:34.649Z,1.55
2022-10-25T09:24:48.597Z,2.25
2022-10-25T09:29:02.375Z,1.80
2022-10-25T09:33:09.952Z,1.80
2022-10-25T09:37:20.596Z,1.80
2022-10-25T09:41:54.431Z,4.50
2022-10-25T09:45:59.236Z,2.53
2022-10-25T09:50:00.580Z,2.30
2022-10-25T09:54:13.563Z,3.78
2022-10-25T09:58:27.118Z,2.30
2022-10-25T10:02:28.664Z,3.15
2022-10-25T10:06:37.570Z,3.47
2022-10-25T10:10:40.019Z,1.92
2022-10-25T10:14:47.756Z,1.58
2022-10-25T10:18:49.189Z,1.50
2022-10-25T10:22:52.912Z,1.83
2022-10-25T10:26:57.349Z,1.50
2022-10-25T10:30:59.460Z,1.65
2022-10-25T10:35:02.688Z,1.60
2022-10-25T10:39:20.901Z,1.80
2022-10-25T10:43:32.981Z,1.73
2022-10-25T10:47:36.769Z,1.88
2022-10-25T10:51:44.331Z,1.70
2022-10-25T10:55:46.180Z,1.50
2022-10-25T10:59:56.265Z,1.80
2022-10-25T11:04:00.923Z,1.90
2022-10-25T11:08:08.477Z,1.45
2022-10-25T11:12:18.014Z,1.40
2022-10-25T11:20:44.096Z,1.65
2022-10-25T11:25:08.152Z,1.10
2022-10-25T11:29:27.006Z,0.90
2022-10-25T11:33:38.133Z,1.40
2022-10-25T11:37:46.142Z,1.40
2022-10-25T11:46:23.762Z,1.15
2022-10-25T11:50:39.961Z,1.73
2022-10-25T11:55:16.907Z,1.52
2022-10-25T11:59:41.752Z,1.65
2022-10-25T12:03:52.150Z,1.27
2022-10-25T12:08:38.072Z,1.30
2022-10-25T12:12:45.286Z,1.05
2022-10-25T12:16:47.489Z,1.50
2022-10-25T12:20:50.048Z,1.13
2022-10-25T12:24:59.586Z,1.50
2022-10-25T12:29:04.697Z,1.58
2022-10-25T12:33:24.591Z,1.15
2022-10-25T12:41:45.062Z,2.03
2022-10-25T12:46:07.799Z,1.70
2022-10-25T12:50:27.346Z,1.40
2022-10-25T12:55:16.678Z,1.40
2022-10-25T12:59:42.967Z,1.33
2022-10-25T13:04:11.991Z,0.70
2022-10-25T13:08:18.425Z,1.27
2022-10-25T13:12:22.233Z,1.08
2022-10-25T13:16:30.108Z,1.20
2022-10-25T13:20:34.495Z,1.45
2022-10-25T13:24:43.550Z,1.98
2022-10-25T13:28:49.803Z,1.90
2022-10-25T13:33:16.038Z,1.70
2022-10-25T13:37:32.505Z,2.03
2022-10-25T13:41:45.382Z,1.80
2022-10-25T13:45:53.979Z,2.05
2022-10-25T13:49:55.665Z,2.33
2022-10-25T13:54:02.444Z,1.92
2022-10-25T13:58:31.567Z,2.45
2022-10-25T14:03:05.395Z,3.20
2022-10-25T14:07:51.990Z,2.67
2022-10-25T14:11:59.454Z,2.30
2022-10-25T14:16:04.486Z,2.67
2022-10-25T14:20:24.299Z,2.83
2022-10-25T14:24:25.757Z,2.80
2022-10-25T14:28:29.818Z,2.45
2022-10-25T14:32:31.196Z,2.40
2022-10-25T14:36:36.513Z,2.40
2022-10-25T14:40:38.027Z,2.58
2022-10-25T14:44:48.667Z,3.28
2022-10-25T14:48:54.870Z,3.53
2022-10-25T14:52:58.057Z,2.95
2022-10-25T14:57:06.245Z,3.53
2022-10-25T15:01:12.178Z,3.20
2022-10-25T15:05:22.477Z,4.18
2022-10-25T15:13:48.312Z,3.38
2022-10-25T15:17:50.796Z,3.83
2022-10-25T15:21:53.166Z,4.25
2022-10-25T15:25:54.578Z,4.90
2022-10-25T15:29:56.016Z,4.50
2022-10-25T15:34:03.574Z,4.30
2022-10-25T15:38:05.842Z,3.90
2022-10-25T15:42:08.491Z,3.80
2022-10-25T15:46:26.092Z,4.70
2022-10-25T15:50:27.593Z,4.68
2022-10-25T15:54:29.058Z,4.90
2022-10-25T15:58:30.431Z,6.38
2022-10-25T16:02:32.436Z,7.32
2022-10-25T16:06:33.811Z,7.80
2022-10-25T16:10:36.257Z,8.10
2022-10-25T16:14:37.765Z,7.68
2022-10-25T16:18:39.107Z,8.07
2022-10-25T16:22:40.460Z,8.45
2022-10-25T16:26:45.082Z,8.13
2022-10-25T16:30:47.122Z,9.05
2022-10-25T16:34:48.584Z,9.63
2022-10-25T16:38:50.050Z,6.72
2022-10-25T16:42:51.513Z,7.00
2022-10-25T16:46:53.112Z,6.40
2022-10-25T16:50:54.479Z,8.25
2022-10-25T16:54:55.828Z,10.38
2022-10-25T16:58:57.169Z,11.57
2022-10-25T17:02:58.735Z,11.43
2022-10-25T17:07:00.796Z,11.30
2022-10-25T17:11:02.245Z,11.23
2022-10-25T17:15:03.815Z,10.18
2022-10-25T17:19:05.284Z,11.52
2022-10-25T17:23:06.695Z,13.18
2022-10-25T17:27:08.156Z,16.63
2022-10-25T17:31:10.819Z,11.30
2022-10-25T17:35:12.879Z,10.70
2022-10-25T17:39:16.710Z,9.75
2022-10-25T17:43:18.085Z,9.93
2022-10-25T17:47:19.485Z,10.88
2022-10-25T17:51:20.893Z,12.65
2022-10-25T17:55:22.284Z,7.15
2022-10-25T17:59:23.897Z,8.55
2022-10-25T18:03:25.467Z,7.50
2022-10-25T18:07:29.972Z,6.90
2022-10-25T18:11:34.098Z,6.57
2022-10-25T18:15:38.251Z,6.30
2022-10-25T18:19:40.729Z,5.68
2022-10-25T18:23:42.279Z,4.93
2022-10-25T18:27:43.704Z,4.43
2022-10-25T18:31:45.139Z,5.88
2022-10-25T18:35:46.530Z,4.63
2022-10-25T18:39:48.374Z,6.45
2022-10-25T18:43:50.599Z,5.75
2022-10-25T18:47:53.854Z,5.70
2022-10-25T18:51:55.241Z,5.72
2022-10-25T18:55:56.627Z,6.90
2022-10-25T18:59:58.028Z,6.05
2022-10-25T19:04:01.255Z,5.93
2022-10-25T19:08:02.653Z,5.85
2022-10-25T19:12:04.327Z,10.02
2022-10-25T19:16:06.583Z,8.45
2022-10-25T19:20:08.533Z,6.57
2022-10-25T19:24:14.910Z,6.97
2022-10-25T19:28:16.364Z,6.88
2022-10-25T19:32:17.869Z,5.93
2022-10-25T19:36:20.102Z,7.80
2022-10-25T19:40:21.503Z,9.38
2022-10-25T19:44:23.036Z,7.68
2022-10-25T19:48:24.856Z,13.75
2022-10-25T19:52:26.254Z,11.80
2022-10-25T19:56:27.739Z,12.25
2022-10-25T20:00:29.135Z,11.40
2022-10-25T20:04:30.638Z,7.93
2022-10-25T20:08:33.974Z,12.07
2022-10-25T20:12:35.406Z,15.02
2022-10-25T20:16:36.857Z,12.30
2022-10-25T20:20:38.912Z,7.90
2022-10-25T20:24:40.294Z,10.25
2022-10-25T20:28:42.238Z,9.10
2022-10-25T20:32:43.700Z,11.30
2022-10-25T20:36:45.848Z,9.27
2022-10-25T20:40:47.274Z,12.18
2022-10-25T20:44:48.763Z,9.13
2022-10-25T20:48:51.272Z,6.50
2022-10-25T20:53:09.233Z,6.35
2022-10-25T20:57:11.404Z,12.85
2022-10-25T21:01:13.173Z,6.05
2022-10-25T21:05:14.826Z,7.43
2022-10-25T21:09:16.231Z,8.98
2022-10-25T21:13:17.614Z,7.15
2022-10-25T21:17:19.089Z,6.80
2022-10-25T21:21:20.760Z,6.93
2022-10-25T21:25:22.294Z,6.43
2022-10-25T21:29:23.798Z,6.93
2022-10-25T21:33:25.191Z,6.80
2022-10-25T21:37:27.064Z,6.07
2022-10-25T21:41:29.575Z,6.65
2022-10-25T21:45:30.975Z,6.25
2022-10-25T21:49:32.705Z,7.00
2022-10-25T21:53:34.167Z,8.20
2022-10-25T21:57:36.251Z,7.43
2022-10-25T22:01:37.681Z,7.25
2022-10-25T22:05:43.101Z,7.13
2022-10-25T22:09:44.485Z,6.70
2022-10-25T22:13:46.757Z,5.97
2022-10-25T22:17:48.159Z,6.57
2022-10-25T22:21:51.067Z,6.68
2022-10-25T22:25:52.584Z,7.00
2022-10-25T22:29:53.937Z,6.80
2022-10-25T22:34:00.519Z,7.03
2022-10-25T22:38:02.272Z,6.55
2022-10-25T22:42:11.226Z,5.82
2022-10-25T22:46:15.858Z,6.68
2022-10-25T22:50:17.241Z,8.25
2022-10-25T22:54:18.630Z,6.43
2022-10-25T22:58:20.026Z,7.10
2022-10-25T23:02:21.548Z,6.40
2022-10-25T23:06:26.415Z,7.38
2022-10-25T23:10:27.785Z,6.80
2022-10-25T23:14:29.283Z,6.82
2022-10-25T23:18:31.267Z,7.28
2022-10-25T23:22:32.601Z,7.13
2022-10-25T23:26:36.332Z,5.88
2022-10-25T23:30:38.307Z,7.13
2022-10-25T23:34:39.691Z,6.35
2022-10-25T23:38:41.856Z,6.18
2022-10-25T23:46:50.256Z,6.82
2022-10-25T23:50:56.691Z,5.40
2022-10-25T23:54:58.284Z,6.13
2022-10-25T23:59:00.342Z,6.60
